Portada
METAR-TAF:

METAR-TAF

Aeroports :

Bàssora, Iraq

latitud: 30-32-56N, longitud: 47-39-45E, altitud: 1 m

Observació

L'informe es va fer fa 51 minuts, a les 04:00 UTC
Vent 6 kt del Oest
Temperatura 13°C
Humitat 94%
Pressió 1020 hPa
Visibilitat: 0800 m
boira

METAR: ORMM 300400Z 27006KT 0800 FG NSC 13/12 Q1020 NOSIG

Hora: 07:51 (04:51 UTC)

Pronòstic

L'informe es va fer fa 12 hores i 51 minuts, a les 16:00 UTC
Pronòstic vàlid del 29 a les 18 UTC al 30 a les 18 UTC
Vent 8 kt del Oest
Visibilitat: 6000 m
Escasses núvols a una alçada de 4000 ft
Núvols disperses a una alçada de 10000 ft
Temporalment
l' 30 a les 00 UTC al 30 a les 06 UTC
Visibilitat: 3000 m
boirina

TAF: ORMM 291600Z 2918/3018 27008KT 6000 FEW040 SCT100 TEMPO 3000/3006 3000 BR

Observacions i pronòstics meteorològics de més de 4000 aeroports (METAR i TAF).

Les estacions disponibles són els punts grocs i vermells al mapa.

Posi el ratolí al punt desitjat per veure el nom de l'estació.

Feu clic per veure les observacions i els pronòstics meteorològics.

Per canviar el mapa: feu clic els botons verds amb una creu de color negre per apropar; al botó verd amb un guió per allunyar la imatge; o en les fletxes verdes per a mapes adjacents.


METAR-TAF: